createdAt,value
2022-10-10T00:00:53.083Z,8.90
2022-10-10T00:01:53.107Z,8.94
2022-10-10T00:02:53.224Z,8.81
2022-10-10T00:03:53.050Z,8.91
2022-10-10T00:04:53.044Z,8.90
2022-10-10T00:05:53.029Z,8.97
2022-10-10T00:06:53.036Z,8.97
2022-10-10T00:07:53.007Z,8.88
2022-10-10T00:08:53.017Z,8.93
2022-10-10T00:09:52.986Z,8.96
2022-10-10T00:10:52.994Z,8.91
2022-10-10T00:11:52.963Z,8.81
2022-10-10T00:12:53.417Z,8.93
2022-10-10T00:13:52.941Z,8.90
2022-10-10T00:14:52.932Z,8.87
2022-10-10T00:15:52.932Z,8.90
2022-10-10T00:16:52.910Z,8.87
2022-10-10T00:17:52.898Z,8.87
2022-10-10T00:18:52.889Z,8.71
2022-10-10T00:19:52.940Z,8.79
2022-10-10T00:20:52.868Z,8.69
2022-10-10T00:21:52.864Z,8.66
2022-10-10T00:22:53.317Z,8.73
2022-10-10T00:23:52.831Z,8.71
2022-10-10T00:24:52.840Z,8.71
2022-10-10T00:25:52.812Z,8.88
2022-10-10T00:26:52.813Z,8.84
2022-10-10T00:27:52.792Z,8.81
2022-10-10T00:28:52.780Z,8.87
2022-10-10T00:29:52.768Z,8.81
2022-10-10T00:30:52.759Z,8.86
2022-10-10T00:31:52.759Z,8.84
2022-10-10T00:32:53.110Z,8.84
2022-10-10T00:33:52.724Z,8.86
2022-10-10T00:34:52.718Z,8.94
2022-10-10T00:35:52.702Z,8.93
2022-10-10T00:36:52.707Z,8.86
2022-10-10T00:37:52.681Z,8.81
2022-10-10T00:38:52.674Z,8.79
2022-10-10T00:39:52.664Z,8.73
2022-10-10T00:40:52.667Z,8.81
2022-10-10T00:41:52.653Z,8.76
2022-10-10T00:42:53.347Z,8.76
2022-10-10T00:43:52.617Z,8.72
2022-10-10T00:44:52.608Z,8.71
2022-10-10T00:45:52.596Z,8.71
2022-10-10T00:46:52.598Z,8.71
2022-10-10T00:47:52.573Z,8.73
2022-10-10T00:48:52.566Z,8.73
2022-10-10T00:49:52.553Z,8.75
2022-10-10T00:50:52.542Z,8.72
2022-10-10T00:51:52.548Z,8.69
2022-10-10T00:52:52.866Z,8.69
2022-10-10T00:53:52.511Z,8.65
2022-10-10T00:54:52.498Z,8.66
2022-10-10T00:55:52.492Z,8.55
2022-10-10T00:56:52.503Z,8.58
2022-10-10T00:57:52.470Z,8.60
2022-10-10T00:58:52.455Z,8.57
2022-10-10T00:59:52.446Z,8.60
2022-10-10T01:00:52.452Z,8.68
2022-10-10T01:01:52.434Z,8.72
2022-10-10T01:02:53.000Z,8.69
2022-10-10T01:03:52.403Z,8.68
2022-10-10T01:04:52.390Z,8.69
2022-10-10T01:05:52.390Z,8.71
2022-10-10T01:06:52.368Z,8.66
2022-10-10T01:07:52.360Z,8.65
2022-10-10T01:08:52.347Z,8.69
2022-10-10T01:09:52.340Z,8.72
2022-10-10T01:10:52.334Z,8.68
2022-10-10T01:11:52.317Z,8.75
2022-10-10T01:12:52.845Z,8.86
2022-10-10T01:13:52.301Z,8.94
2022-10-10T01:14:52.284Z,8.93
2022-10-10T01:15:52.312Z,8.86
2022-10-10T01:16:52.262Z,8.90
2022-10-10T01:17:52.252Z,8.90
2022-10-10T01:18:52.240Z,8.94
2022-10-10T01:19:52.232Z,8.81
2022-10-10T01:20:52.236Z,8.83
2022-10-10T01:21:52.207Z,8.72
2022-10-10T01:22:52.700Z,8.66
2022-10-10T01:23:52.272Z,8.79
2022-10-10T01:24:52.177Z,8.66
2022-10-10T01:25:52.179Z,8.62
2022-10-10T01:26:52.153Z,8.55
2022-10-10T01:27:52.143Z,8.53
2022-10-10T01:28:52.152Z,8.51
2022-10-10T01:29:52.123Z,8.62
2022-10-10T01:30:52.134Z,8.50
2022-10-10T01:31:52.101Z,8.45
2022-10-10T01:32:52.389Z,8.47
2022-10-10T01:33:52.079Z,8.58
2022-10-10T01:34:52.084Z,8.54
2022-10-10T01:35:52.059Z,8.48
2022-10-10T01:36:52.046Z,8.48
2022-10-10T01:37:52.039Z,8.60
2022-10-10T01:38:52.024Z,8.51
2022-10-10T01:39:52.027Z,8.47
2022-10-10T01:40:52.003Z,8.45
2022-10-10T01:41:51.993Z,8.44
2022-10-10T01:42:52.397Z,8.40
2022-10-10T01:43:51.971Z,8.39
2022-10-10T01:44:51.991Z,8.48
2022-10-10T01:45:51.953Z,8.39
2022-10-10T01:46:51.938Z,8.36
2022-10-10T01:47:51.928Z,8.44
2022-10-10T01:48:51.917Z,8.39
2022-10-10T01:49:51.931Z,8.37
2022-10-10T01:50:51.896Z,8.39
2022-10-10T01:51:51.885Z,8.33
2022-10-10T01:52:52.236Z,8.32
2022-10-10T01:53:51.866Z,8.32
2022-10-10T01:54:51.862Z,8.32
2022-10-10T01:55:51.855Z,8.33
2022-10-10T01:56:51.831Z,8.30
2022-10-10T01:57:51.825Z,8.35
2022-10-10T01:58:51.808Z,8.32
2022-10-10T01:59:51.808Z,8.32
2022-10-10T02:01:53.441Z,8.21
2022-10-10T02:02:53.869Z,8.25
2022-10-10T02:03:53.402Z,8.21
2022-10-10T02:04:53.406Z,8.22
2022-10-10T02:05:53.390Z,8.30
2022-10-10T02:06:53.370Z,8.29
2022-10-10T02:07:53.361Z,8.30
2022-10-10T02:08:53.378Z,8.26
2022-10-10T02:09:53.347Z,8.42
2022-10-10T02:10:53.323Z,8.39
2022-10-10T02:11:53.315Z,8.37
2022-10-10T02:12:53.753Z,8.39
2022-10-10T02:13:53.293Z,8.45
2022-10-10T02:14:53.288Z,8.47
2022-10-10T02:15:53.278Z,8.42
2022-10-10T02:16:53.257Z,8.51
2022-10-10T02:17:53.269Z,8.53
2022-10-10T02:18:53.238Z,8.50
2022-10-10T02:19:53.237Z,8.58
2022-10-10T02:20:53.221Z,8.42
2022-10-10T02:21:53.205Z,8.48
2022-10-10T02:22:53.770Z,8.53
2022-10-10T02:23:53.185Z,8.40
2022-10-10T02:24:53.194Z,8.47
2022-10-10T02:25:53.167Z,8.50
2022-10-10T02:26:53.149Z,8.47
2022-10-10T02:27:53.169Z,8.37
2022-10-10T02:28:53.127Z,8.39
2022-10-10T02:29:53.133Z,8.35
2022-10-10T02:30:53.109Z,8.36
2022-10-10T02:31:53.099Z,8.35
2022-10-10T02:32:53.471Z,8.33
2022-10-10T02:33:53.094Z,8.30
2022-10-10T02:34:53.078Z,8.29
2022-10-10T02:35:53.054Z,8.26
2022-10-10T02:36:53.042Z,8.20
2022-10-10T02:37:53.037Z,8.25
2022-10-10T02:38:53.065Z,8.17
2022-10-10T02:39:53.190Z,8.17
2022-10-10T02:40:53.002Z,8.12
2022-10-10T02:41:52.990Z,8.14
2022-10-10T02:42:53.512Z,8.18
2022-10-10T02:43:52.967Z,8.21
2022-10-10T02:44:52.970Z,8.17
2022-10-10T02:45:52.946Z,8.20
2022-10-10T02:46:52.938Z,8.22
2022-10-10T02:47:52.925Z,8.29
2022-10-10T02:48:52.911Z,8.35
2022-10-10T02:49:52.931Z,8.36
2022-10-10T02:50:52.890Z,8.37
2022-10-10T02:51:52.896Z,8.47
2022-10-10T02:52:53.253Z,8.51
2022-10-10T02:53:52.861Z,8.33
2022-10-10T02:54:52.858Z,8.51
2022-10-10T02:55:52.838Z,8.40
2022-10-10T02:56:52.826Z,8.40
2022-10-10T02:57:52.817Z,8.36
2022-10-10T02:58:52.807Z,8.36
2022-10-10T02:59:52.805Z,8.40
2022-10-10T03:00:52.829Z,8.39
2022-10-10T03:01:52.777Z,8.28
2022-10-10T03:02:53.176Z,8.18
2022-10-10T03:03:52.753Z,8.15
2022-10-10T03:04:52.748Z,8.08
2022-10-10T03:05:52.750Z,7.97
2022-10-10T03:06:52.722Z,7.93
2022-10-10T03:07:52.711Z,7.97
2022-10-10T03:08:52.695Z,7.97
2022-10-10T03:09:52.700Z,7.99
2022-10-10T03:10:52.706Z,8.07
2022-10-10T03:11:52.665Z,7.93
2022-10-10T03:12:52.983Z,7.81
2022-10-10T03:13:52.646Z,7.94
2022-10-10T03:14:52.645Z,7.94
2022-10-10T03:15:52.621Z,8.02
2022-10-10T03:16:52.611Z,7.87
2022-10-10T03:17:52.601Z,7.89
2022-10-10T03:18:52.588Z,7.84
2022-10-10T03:19:52.591Z,7.89
2022-10-10T03:20:52.566Z,7.75
2022-10-10T03:21:52.575Z,7.85
2022-10-10T03:22:52.880Z,7.81
2022-10-10T03:23:52.536Z,7.78
2022-10-10T03:24:52.537Z,7.93
2022-10-10T03:25:52.514Z,7.75
2022-10-10T03:26:52.501Z,7.84
2022-10-10T03:27:52.496Z,7.78
2022-10-10T03:28:52.482Z,7.71
2022-10-10T03:29:52.485Z,7.75
2022-10-10T03:30:52.460Z,7.79
2022-10-10T03:31:52.450Z,7.75
2022-10-10T03:32:52.994Z,7.74
2022-10-10T03:33:52.433Z,7.59
2022-10-10T03:34:52.424Z,7.62
2022-10-10T03:35:52.407Z,7.55
2022-10-10T03:36:52.394Z,7.55
2022-10-10T03:37:52.402Z,7.53
2022-10-10T03:38:52.370Z,7.56
2022-10-10T03:39:52.376Z,7.62
2022-10-10T03:40:52.349Z,7.62
2022-10-10T03:41:52.340Z,7.74
2022-10-10T03:42:53.069Z,7.67
2022-10-10T03:43:52.320Z,7.62
2022-10-10T03:44:52.320Z,7.74
2022-10-10T03:45:52.300Z,7.72
2022-10-10T03:46:52.287Z,7.72
2022-10-10T03:47:52.306Z,7.71
2022-10-10T03:48:52.269Z,7.56
2022-10-10T03:49:52.268Z,7.59
2022-10-10T03:50:52.246Z,7.53
2022-10-10T03:51:52.233Z,7.58
2022-10-10T03:52:52.581Z,7.58
2022-10-10T03:53:52.231Z,7.52
2022-10-10T03:54:52.227Z,7.56
2022-10-10T03:55:52.190Z,7.56
2022-10-10T03:56:52.178Z,7.59
2022-10-10T03:57:52.206Z,7.56
2022-10-10T03:58:52.172Z,7.55
2022-10-10T03:59:52.148Z,7.45
2022-10-10T04:00:52.139Z,7.56
2022-10-10T04:01:52.146Z,7.58
2022-10-10T04:02:52.422Z,7.59
2022-10-10T04:03:52.414Z,7.45
2022-10-10T04:04:52.100Z,7.41
2022-10-10T04:05:52.088Z,7.45
2022-10-10T04:06:52.069Z,7.49
2022-10-10T04:07:52.060Z,7.52
2022-10-10T04:08:52.050Z,7.50
2022-10-10T04:09:52.079Z,7.42
2022-10-10T04:10:52.025Z,7.53
2022-10-10T04:11:52.016Z,7.50
2022-10-10T04:12:52.250Z,7.45
2022-10-10T04:13:52.007Z,7.41
2022-10-10T04:14:52.013Z,7.52
2022-10-10T04:15:51.974Z,7.53
2022-10-10T04:16:51.965Z,7.53
2022-10-10T04:17:51.951Z,7.55
2022-10-10T04:18:51.949Z,7.52
2022-10-10T04:19:51.938Z,7.53
2022-10-10T04:20:51.918Z,7.58
2022-10-10T04:21:51.909Z,7.60
2022-10-10T04:22:52.279Z,7.62
2022-10-10T04:23:51.903Z,7.56
2022-10-10T04:24:51.891Z,7.55
2022-10-10T04:25:51.896Z,7.47
2022-10-10T04:26:51.856Z,7.60
2022-10-10T04:27:51.842Z,7.56
2022-10-10T04:28:51.850Z,7.55
2022-10-10T04:29:51.844Z,7.56
2022-10-10T04:30:51.809Z,7.44
2022-10-10T04:31:51.800Z,7.44
2022-10-10T04:32:52.232Z,7.53
2022-10-10T04:33:51.792Z,7.52
2022-10-10T04:34:51.768Z,7.42
2022-10-10T04:35:51.757Z,7.55
2022-10-10T04:36:51.744Z,7.45
2022-10-10T04:37:51.736Z,7.53
2022-10-10T04:38:51.733Z,7.50
2022-10-10T04:39:51.715Z,7.42
2022-10-10T04:40:51.702Z,7.45
2022-10-10T04:41:51.708Z,7.42
2022-10-10T04:42:52.031Z,7.45
2022-10-10T04:43:51.690Z,7.53
2022-10-10T04:44:51.658Z,7.52
2022-10-10T04:45:51.648Z,7.55
2022-10-10T04:46:51.636Z,7.52
2022-10-10T04:47:51.649Z,7.55
2022-10-10T04:48:51.628Z,7.44
2022-10-10T04:49:51.609Z,7.49
2022-10-10T04:50:51.595Z,7.40
2022-10-10T04:51:51.597Z,7.45
2022-10-10T04:52:51.970Z,7.45
2022-10-10T04:53:51.574Z,7.52
2022-10-10T04:54:51.551Z,7.42
2022-10-10T04:55:51.540Z,7.50
2022-10-10T04:56:51.529Z,7.49
2022-10-10T04:57:51.535Z,7.45
2022-10-10T04:58:51.519Z,7.41
2022-10-10T04:59:51.496Z,7.47
2022-10-10T05:00:51.488Z,7.44
2022-10-10T05:01:51.473Z,7.40
2022-10-10T05:02:51.747Z,7.45
2022-10-10T05:03:51.467Z,7.35
2022-10-10T05:04:51.445Z,7.47
2022-10-10T05:05:51.438Z,7.38
2022-10-10T05:06:51.426Z,7.31
2022-10-10T05:07:55.331Z,7.19
2022-10-10T05:08:51.414Z,7.17
2022-10-10T05:09:51.387Z,7.20
2022-10-10T05:10:51.379Z,7.20
2022-10-10T05:11:51.369Z,7.09
2022-10-10T05:12:51.740Z,7.16
2022-10-10T05:13:51.373Z,7.20
2022-10-10T05:14:51.335Z,7.22
2022-10-10T05:15:51.325Z,7.07
2022-10-10T05:16:51.318Z,7.12
2022-10-10T05:17:51.303Z,7.09
2022-10-10T05:18:51.306Z,7.05
2022-10-10T05:19:51.281Z,7.09
2022-10-10T05:20:51.272Z,7.15
2022-10-10T05:21:51.259Z,7.04
2022-10-10T05:22:51.594Z,7.22
2022-10-10T05:23:51.255Z,7.13
2022-10-10T05:24:51.228Z,7.13
2022-10-10T05:25:51.215Z,7.19
2022-10-10T05:26:51.208Z,7.17
2022-10-10T05:27:51.193Z,7.19
2022-10-10T05:28:51.195Z,7.07
2022-10-10T05:29:51.188Z,7.22
2022-10-10T05:30:51.178Z,7.20
2022-10-10T05:31:51.150Z,7.17
2022-10-10T05:32:51.348Z,7.19
2022-10-10T05:33:51.139Z,7.31
2022-10-10T05:34:51.118Z,7.40
2022-10-10T05:35:51.108Z,7.37
2022-10-10T05:36:51.100Z,7.32
2022-10-10T05:37:51.086Z,7.37
2022-10-10T05:38:51.095Z,7.49
2022-10-10T05:39:54.560Z,7.44
2022-10-10T05:40:51.075Z,7.47
2022-10-10T05:41:51.047Z,7.58
2022-10-10T05:42:51.275Z,7.53
2022-10-10T05:43:51.030Z,7.53
2022-10-10T05:44:51.014Z,7.62
2022-10-10T05:45:51.027Z,7.63
2022-10-10T05:46:50.990Z,7.72
2022-10-10T05:47:50.978Z,7.77
2022-10-10T05:48:50.994Z,7.69
2022-10-10T05:49:50.956Z,7.71
2022-10-10T05:50:50.946Z,7.72
2022-10-10T05:51:50.935Z,7.74
2022-10-10T05:52:51.138Z,7.78
2022-10-10T05:53:50.921Z,7.96
2022-10-10T05:54:50.903Z,7.99
2022-10-10T05:55:50.897Z,7.97
2022-10-10T05:56:50.882Z,8.10
2022-10-10T05:57:50.869Z,8.14
2022-10-10T05:58:50.869Z,8.17
2022-10-10T05:59:50.846Z,8.20
2022-10-10T06:00:50.836Z,8.30
2022-10-10T06:01:50.896Z,8.45
2022-10-10T06:02:51.175Z,8.57
2022-10-10T06:03:50.815Z,8.60
2022-10-10T06:04:50.794Z,8.57
2022-10-10T06:05:50.781Z,8.72
2022-10-10T06:06:50.773Z,8.79
2022-10-10T06:08:11.584Z,9.06
2022-10-10T06:08:51.751Z,9.21
2022-10-10T06:09:50.738Z,9.48
2022-10-10T06:10:50.729Z,9.76
2022-10-10T06:11:50.718Z,10.00
2022-10-10T06:12:51.099Z,10.17
2022-10-10T06:13:50.694Z,10.36
2022-10-10T06:14:50.686Z,10.78
2022-10-10T06:15:50.673Z,11.01
2022-10-10T06:16:50.664Z,11.11
2022-10-10T06:17:50.708Z,11.13
2022-10-10T06:18:50.644Z,11.09
2022-10-10T06:19:50.632Z,10.92
2022-10-10T06:20:50.633Z,10.84
2022-10-10T06:21:50.612Z,10.71
2022-10-10T06:22:50.868Z,10.62
2022-10-10T06:23:50.600Z,10.60
2022-10-10T06:24:53.008Z,10.56
2022-10-10T06:25:50.567Z,10.30
2022-10-10T06:26:50.564Z,10.17
2022-10-10T06:27:50.543Z,9.82
2022-10-10T06:28:50.550Z,9.81
2022-10-10T06:29:50.534Z,9.61
2022-10-10T06:30:50.515Z,9.49
2022-10-10T06:31:50.521Z,9.48
2022-10-10T06:32:53.605Z,9.42
2022-10-10T06:33:51.517Z,9.27
2022-10-10T06:34:50.469Z,9.30
2022-10-10T06:35:50.457Z,9.78
2022-10-10T06:36:50.449Z,10.17
2022-10-10T06:37:50.437Z,10.70
2022-10-10T06:38:50.463Z,11.27
2022-10-10T06:39:50.416Z,11.75
2022-10-10T06:40:50.405Z,12.33
2022-10-10T06:41:50.393Z,12.89
2022-10-10T06:42:50.695Z,13.56
2022-10-10T06:43:50.380Z,13.94
2022-10-10T06:44:50.364Z,14.50
2022-10-10T06:45:50.346Z,14.90
2022-10-10T06:46:50.345Z,15.41
2022-10-10T06:47:50.363Z,15.70
2022-10-10T06:48:50.327Z,16.06
2022-10-10T06:49:50.322Z,16.25
2022-10-10T06:50:50.295Z,16.58
2022-10-10T06:51:50.282Z,16.75
2022-10-10T06:52:50.596Z,16.89
2022-10-10T06:53:50.270Z,16.92
2022-10-10T06:54:50.250Z,16.98
2022-10-10T06:55:50.242Z,17.17
2022-10-10T06:56:50.228Z,17.28
2022-10-10T06:57:50.216Z,17.50
2022-10-10T06:58:50.258Z,17.36
2022-10-10T06:59:50.194Z,17.40
2022-10-10T07:00:50.186Z,17.11
2022-10-10T07:01:50.208Z,16.88
2022-10-10T07:02:50.409Z,16.53
2022-10-10T07:03:50.163Z,16.50
2022-10-10T07:04:50.142Z,16.30
2022-10-10T07:05:50.145Z,16.12
2022-10-10T07:06:50.122Z,16.30
2022-10-10T07:07:50.107Z,16.25
2022-10-10T07:08:50.111Z,16.04
2022-10-10T07:09:50.096Z,15.93
2022-10-10T07:10:50.080Z,16.03
2022-10-10T07:11:50.066Z,15.75
2022-10-10T07:12:50.057Z,15.89
2022-10-10T07:13:50.061Z,15.86
2022-10-10T07:14:50.034Z,15.68
2022-10-10T07:15:50.023Z,15.54
2022-10-10T07:16:50.017Z,15.89
2022-10-10T07:17:54.226Z,15.86
2022-10-10T07:18:50.008Z,15.54
2022-10-10T07:19:49.980Z,15.28
2022-10-10T07:20:49.971Z,15.08
2022-10-10T07:21:49.977Z,14.62
2022-10-10T07:22:50.238Z,14.42
2022-10-10T07:23:49.949Z,13.89
2022-10-10T07:24:49.943Z,13.54
2022-10-10T07:25:49.919Z,12.95
2022-10-10T07:26:49.904Z,12.54
2022-10-10T07:27:49.946Z,12.38
2022-10-10T07:28:49.904Z,12.24
2022-10-10T07:29:49.869Z,12.26
2022-10-10T07:30:49.859Z,12.26
2022-10-10T07:31:49.848Z,12.20
2022-10-10T07:32:50.185Z,11.96
2022-10-10T07:33:50.815Z,11.89
2022-10-10T07:34:49.816Z,11.77
2022-10-10T07:35:49.804Z,11.99
2022-10-10T07:36:49.796Z,12.05
2022-10-10T07:37:49.803Z,12.31
2022-10-10T07:38:49.783Z,12.37
2022-10-10T07:39:49.762Z,12.38
2022-10-10T07:40:49.753Z,12.64
2022-10-10T07:41:49.740Z,13.20
2022-10-10T07:42:50.024Z,13.22
2022-10-10T07:43:49.747Z,13.30
2022-10-10T07:44:49.708Z,13.32
2022-10-10T07:45:49.744Z,13.33
2022-10-10T07:46:49.695Z,13.25
2022-10-10T07:47:49.941Z,12.92
2022-10-10T07:48:49.707Z,12.66
2022-10-10T07:49:49.651Z,12.23
2022-10-10T07:50:49.641Z,11.89
2022-10-10T07:51:49.631Z,11.83
2022-10-10T07:52:49.619Z,11.93
2022-10-10T07:53:49.634Z,12.01
2022-10-10T07:54:49.599Z,12.08
2022-10-10T07:55:49.584Z,12.12
2022-10-10T07:56:49.575Z,12.38
2022-10-10T07:57:53.171Z,12.38
2022-10-10T07:58:49.565Z,12.33
2022-10-10T07:59:49.545Z,12.06
2022-10-10T08:00:49.532Z,11.71
2022-10-10T08:01:57.162Z,11.50
2022-10-10T08:02:49.508Z,11.31
2022-10-10T08:03:49.508Z,11.27
2022-10-10T08:04:49.490Z,11.38
2022-10-10T08:05:49.474Z,11.53
2022-10-10T08:06:49.505Z,11.72
2022-10-10T08:07:49.794Z,11.75
2022-10-10T08:08:51.672Z,11.86
2022-10-10T08:09:49.447Z,12.02
2022-10-10T08:10:49.423Z,12.16
2022-10-10T08:11:49.409Z,12.41
2022-10-10T08:12:49.421Z,12.92
2022-10-10T08:13:49.399Z,13.62
2022-10-10T08:14:49.379Z,14.25
2022-10-10T08:15:49.364Z,14.69
2022-10-10T08:16:49.356Z,14.91
2022-10-10T08:17:49.659Z,15.27
2022-10-10T08:18:49.343Z,15.61
2022-10-10T08:19:49.321Z,15.97
2022-10-10T08:20:49.313Z,16.09
2022-10-10T08:21:49.305Z,16.14
2022-10-10T08:22:49.637Z,16.11
2022-10-10T08:23:49.297Z,15.68
2022-10-10T08:24:49.310Z,15.66
2022-10-10T08:25:49.274Z,15.72
2022-10-10T08:26:49.280Z,15.92
2022-10-10T08:27:49.234Z,16.04
2022-10-10T08:28:49.343Z,16.03
2022-10-10T08:29:49.212Z,15.99
2022-10-10T08:30:49.219Z,15.94
2022-10-10T08:31:49.194Z,15.97
2022-10-10T08:32:49.542Z,15.99
2022-10-10T08:33:49.180Z,15.97
2022-10-10T08:34:49.163Z,15.67
2022-10-10T08:35:49.148Z,15.59
2022-10-10T08:36:49.137Z,15.46
2022-10-10T08:37:49.129Z,15.30
2022-10-10T08:38:49.138Z,15.35
2022-10-10T08:39:49.112Z,15.59
2022-10-10T08:40:49.097Z,15.85
2022-10-10T08:41:49.151Z,15.93
2022-10-10T08:42:52.686Z,16.06
2022-10-10T08:43:49.073Z,16.12
2022-10-10T08:44:49.054Z,16.23
2022-10-10T08:45:49.040Z,16.38
2022-10-10T08:46:49.031Z,16.52
2022-10-10T08:47:49.018Z,16.67
2022-10-10T08:48:49.021Z,16.86
2022-10-10T08:49:49.019Z,16.92
2022-10-10T08:50:48.988Z,16.74
2022-10-10T08:51:48.978Z,16.96
2022-10-10T08:52:49.361Z,17.20
2022-10-10T08:53:48.974Z,17.43
2022-10-10T08:54:48.946Z,17.62
2022-10-10T08:55:48.933Z,17.94
2022-10-10T08:56:48.923Z,18.18
2022-10-10T08:57:48.930Z,18.39
2022-10-10T08:58:48.915Z,18.44
2022-10-10T08:59:48.980Z,18.74
2022-10-10T09:00:48.944Z,19.05
2022-10-10T09:02:18.328Z,19.14
2022-10-10T09:02:53.949Z,19.32
2022-10-10T09:03:48.858Z,19.35
2022-10-10T09:04:48.836Z,19.20
2022-10-10T09:05:48.838Z,19.32
2022-10-10T09:06:48.826Z,19.33
2022-10-10T09:07:48.801Z,19.31
2022-10-10T09:08:48.800Z,19.25
2022-10-10T09:09:48.873Z,19.24
2022-10-10T09:10:48.769Z,19.06
2022-10-10T09:11:48.762Z,18.99
2022-10-10T09:12:48.755Z,19.05
2022-10-10T09:13:48.872Z,19.21
2022-10-10T09:14:48.725Z,19.42
2022-10-10T09:15:48.716Z,19.90
2022-10-10T09:16:48.706Z,19.83
2022-10-10T09:17:48.697Z,20.08
2022-10-10T09:18:48.699Z,20.08
2022-10-10T09:19:48.789Z,20.33
2022-10-10T09:20:48.662Z,20.80
2022-10-10T09:21:48.652Z,21.24
2022-10-10T09:22:48.641Z,21.42
2022-10-10T09:23:48.640Z,21.75
2022-10-10T09:24:48.619Z,21.94
2022-10-10T09:25:48.607Z,22.10
2022-10-10T09:26:48.596Z,22.09
2022-10-10T09:27:48.596Z,22.29
2022-10-10T09:28:48.651Z,22.54
2022-10-10T09:29:48.688Z,22.35
2022-10-10T09:30:48.554Z,22.38
2022-10-10T09:31:48.544Z,22.57
2022-10-10T09:32:48.539Z,22.60
2022-10-10T09:33:48.539Z,22.77
2022-10-10T09:34:48.511Z,22.86
2022-10-10T09:35:48.501Z,22.97
2022-10-10T09:36:48.490Z,23.24
2022-10-10T09:37:48.482Z,23.38
2022-10-10T09:38:48.483Z,23.42
2022-10-10T09:39:48.463Z,23.27
2022-10-10T09:40:48.449Z,23.24
2022-10-10T09:41:48.441Z,23.68
2022-10-10T09:42:48.429Z,23.60
2022-10-10T09:43:48.436Z,23.43
2022-10-10T09:44:48.409Z,23.64
2022-10-10T09:45:48.417Z,23.86
2022-10-10T09:46:48.387Z,23.80
2022-10-10T09:47:48.381Z,24.10
2022-10-10T09:48:48.377Z,24.39
2022-10-10T09:49:48.361Z,24.42
2022-10-10T09:50:48.347Z,24.32
2022-10-10T09:51:48.337Z,24.17
2022-10-10T09:52:48.326Z,23.94
2022-10-10T09:53:48.334Z,23.83
2022-10-10T09:54:48.305Z,23.65
2022-10-10T09:55:48.327Z,23.52
2022-10-10T09:56:48.284Z,23.70
2022-10-10T09:57:48.275Z,23.75
2022-10-10T09:58:48.276Z,23.35
2022-10-10T09:59:48.254Z,22.77
2022-10-10T10:00:48.283Z,22.23
2022-10-10T10:01:48.289Z,21.71
2022-10-10T10:02:48.224Z,21.23
2022-10-10T10:03:48.224Z,20.62
2022-10-10T10:04:48.202Z,20.12
2022-10-10T10:05:48.192Z,19.79
2022-10-10T10:06:48.179Z,19.36
2022-10-10T10:07:48.171Z,18.97
2022-10-10T10:08:49.981Z,18.72
2022-10-10T10:09:48.150Z,18.79
2022-10-10T10:10:48.138Z,18.54
2022-10-10T10:11:48.134Z,18.22
2022-10-10T10:12:48.114Z,18.21
2022-10-10T10:13:48.116Z,18.17
2022-10-10T10:14:48.093Z,18.09
2022-10-10T10:15:48.086Z,18.33
2022-10-10T10:16:48.072Z,18.17
2022-10-10T10:17:48.203Z,18.19
2022-10-10T10:18:48.053Z,18.12
2022-10-10T10:19:48.041Z,18.19
2022-10-10T10:20:48.028Z,18.03
2022-10-10T10:21:48.017Z,18.00
2022-10-10T10:22:48.054Z,17.89
2022-10-10T10:23:48.056Z,17.78
2022-10-10T10:24:47.985Z,17.66
2022-10-10T10:25:47.975Z,17.78
2022-10-10T10:26:47.962Z,17.85
2022-10-10T10:27:47.952Z,17.79
2022-10-10T10:28:48.016Z,17.71
2022-10-10T10:29:47.932Z,17.82
2022-10-10T10:30:47.920Z,17.66
2022-10-10T10:31:47.908Z,17.66
2022-10-10T10:32:47.907Z,17.59
2022-10-10T10:33:48.004Z,17.44
2022-10-10T10:34:47.871Z,17.26
2022-10-10T10:35:47.868Z,17.13
2022-10-10T10:36:47.859Z,17.11
2022-10-10T10:37:47.858Z,17.08
2022-10-10T10:38:47.830Z,17.08
2022-10-10T10:39:47.821Z,17.08
2022-10-10T10:40:47.808Z,17.07
2022-10-10T10:41:47.800Z,16.95
2022-10-10T10:42:47.808Z,16.96
2022-10-10T10:43:47.779Z,16.96
2022-10-10T10:44:47.774Z,16.85
2022-10-10T10:45:47.756Z,16.83
2022-10-10T10:46:47.744Z,16.71
2022-10-10T10:47:47.747Z,16.58
2022-10-10T10:48:47.733Z,16.67
2022-10-10T10:49:47.731Z,16.74
2022-10-10T10:50:47.700Z,16.75
2022-10-10T10:51:47.691Z,16.80
2022-10-10T10:52:47.688Z,16.78
2022-10-10T10:53:47.670Z,16.81
2022-10-10T10:54:47.665Z,16.77
2022-10-10T10:55:47.649Z,16.78
2022-10-10T10:56:47.637Z,16.78
2022-10-10T10:58:05.171Z,16.78
2022-10-10T10:59:15.800Z,16.71
2022-10-10T11:00:21.646Z,16.80
2022-10-10T11:01:23.405Z,16.83
2022-10-10T11:01:57.798Z,16.92
2022-10-10T11:02:59.646Z,16.80
2022-10-10T11:05:16.629Z,16.78
2022-10-10T11:05:18.786Z,16.77
2022-10-10T11:05:48.706Z,16.73
2022-10-10T11:06:59.975Z,16.67
2022-10-10T11:07:48.625Z,16.60
2022-10-10T11:08:47.520Z,16.65
2022-10-10T11:09:50.960Z,16.63
2022-10-10T11:10:47.483Z,16.56
2022-10-10T11:11:47.473Z,16.65
2022-10-10T11:12:47.472Z,16.67
2022-10-10T11:13:47.464Z,16.55
2022-10-10T11:14:47.446Z,16.53
2022-10-10T11:16:05.505Z,16.63
2022-10-10T11:16:49.353Z,16.62
2022-10-10T11:17:47.423Z,16.52
2022-10-10T11:18:47.411Z,16.58
2022-10-10T11:19:47.384Z,16.60
2022-10-10T11:20:47.393Z,16.68
2022-10-10T11:21:47.386Z,16.73
2022-10-10T11:22:47.351Z,16.74
2022-10-10T11:23:47.356Z,16.73
2022-10-10T11:24:47.344Z,16.77
2022-10-10T11:25:47.317Z,16.74
2022-10-10T11:26:47.309Z,16.68
2022-10-10T11:27:47.297Z,16.73
2022-10-10T11:28:49.577Z,16.71
2022-10-10T11:29:47.275Z,16.70
2022-10-10T11:30:47.261Z,16.74
2022-10-10T11:31:47.252Z,16.73
2022-10-10T11:32:47.240Z,16.78
2022-10-10T11:33:47.242Z,16.90
2022-10-10T11:34:47.217Z,16.90
2022-10-10T11:35:47.214Z,16.88
2022-10-10T11:36:47.197Z,16.95
2022-10-10T11:37:47.208Z,17.03
2022-10-10T11:38:47.182Z,16.99
2022-10-10T11:39:47.166Z,16.98
2022-10-10T11:40:47.153Z,16.99
2022-10-10T11:41:47.143Z,17.00
2022-10-10T11:42:47.131Z,16.99
2022-10-10T11:43:47.131Z,17.00
2022-10-10T11:44:47.107Z,17.00
2022-10-10T11:45:49.765Z,17.08
2022-10-10T11:46:48.085Z,17.04
2022-10-10T11:47:47.077Z,17.13
2022-10-10T11:48:47.074Z,17.17
2022-10-10T11:49:47.055Z,17.07
2022-10-10T11:50:47.043Z,17.11
2022-10-10T11:51:47.033Z,17.10
2022-10-10T11:52:47.020Z,17.08
2022-10-10T11:53:47.036Z,17.08
2022-10-10T11:54:47.006Z,17.11
2022-10-10T11:55:46.988Z,17.04
2022-10-10T11:56:46.978Z,17.15
2022-10-10T11:57:46.968Z,17.13
2022-10-10T11:58:46.963Z,17.13
2022-10-10T11:59:46.946Z,17.20
2022-10-10T12:00:46.931Z,17.13
2022-10-10T12:01:47.003Z,17.14
2022-10-10T12:02:46.909Z,17.08
2022-10-10T12:03:46.910Z,17.06
2022-10-10T12:04:46.886Z,16.98
2022-10-10T12:05:46.880Z,16.98
2022-10-10T12:06:46.866Z,17.13
2022-10-10T12:07:46.858Z,17.14
2022-10-10T12:08:46.851Z,17.07
2022-10-10T12:09:46.852Z,17.13
2022-10-10T12:10:46.821Z,17.03
2022-10-10T12:11:46.812Z,17.03
2022-10-10T12:12:46.810Z,17.04
2022-10-10T12:13:46.790Z,16.98
2022-10-10T12:14:46.783Z,17.13
2022-10-10T12:15:49.969Z,17.10
2022-10-10T12:16:46.758Z,17.06
2022-10-10T12:17:46.758Z,17.11
2022-10-10T12:18:46.733Z,17.03
2022-10-10T12:19:46.728Z,17.10
2022-10-10T12:20:46.735Z,17.07
2022-10-10T12:21:46.703Z,17.04
2022-10-10T12:22:46.704Z,17.14
2022-10-10T12:23:46.679Z,17.14
2022-10-10T12:24:50.169Z,17.06
2022-10-10T12:25:46.691Z,16.98
2022-10-10T12:26:46.646Z,17.10
2022-10-10T12:27:46.649Z,17.10
2022-10-10T12:28:46.729Z,17.20
2022-10-10T12:29:50.718Z,17.17
2022-10-10T12:30:46.607Z,17.17
2022-10-10T12:31:46.590Z,17.22
2022-10-10T12:32:46.591Z,17.18
2022-10-10T12:33:46.583Z,17.20
2022-10-10T12:34:46.607Z,17.22
2022-10-10T12:35:46.548Z,17.26
2022-10-10T12:36:46.538Z,17.23
2022-10-10T12:37:46.561Z,17.26
2022-10-10T12:38:46.512Z,17.32
2022-10-10T12:39:46.503Z,17.35
2022-10-10T12:40:46.490Z,17.40
2022-10-10T12:41:47.678Z,17.38
2022-10-10T12:42:46.468Z,17.35
2022-10-10T12:43:46.467Z,17.29
2022-10-10T12:44:46.447Z,17.26
2022-10-10T12:45:46.442Z,17.29
2022-10-10T12:46:46.425Z,17.28
2022-10-10T12:48:04.341Z,17.32
2022-10-10T12:48:47.410Z,17.32
2022-10-10T12:49:46.392Z,17.30
2022-10-10T12:50:46.381Z,17.26
2022-10-10T12:51:46.377Z,17.18
2022-10-10T12:52:46.356Z,17.20
2022-10-10T12:53:46.364Z,17.20
2022-10-10T12:54:46.336Z,17.20
2022-10-10T12:55:46.333Z,17.17
2022-10-10T12:56:46.312Z,17.23
2022-10-10T12:57:46.318Z,17.26
2022-10-10T12:58:46.302Z,17.18
2022-10-10T12:59:46.282Z,17.25
2022-10-10T13:00:46.300Z,17.22
2022-10-10T13:01:46.286Z,17.15
2022-10-10T13:02:46.247Z,17.14
2022-10-10T13:03:46.245Z,17.14
2022-10-10T13:04:46.225Z,17.14
2022-10-10T13:05:46.216Z,17.14